Time;durP1;ratioP1;P1;durP2;ratioP2;P2;SDS_P1;SDS_P2;PMS_P1;PMS_P2;Temp;Humidity;BMP_temperature;BMP_pressure;BME280_temperature;BME280_humidity;BME280_pressure;Samples;Min_cycle;Max_cycle;Signal;HPM_P1;HPM_P2
2021/11/09 00:01:02;;;;;;;22.90;11.68;;;;;;;7.87;52.38;96137.31;4982790;28;20546;-69
2021/11/09 00:03:29;;;;;;;18.15;11.13;;;;;;;8.04;52.28;96140.53;4990864;28;20027;-69
2021/11/09 00:06:02;;;;;;;19.40;10.85;;;;;;;8.19;52.17;96138.94;4991380;28;20034;-70
2021/11/09 00:08:34;;;;;;;20.95;10.52;;;;;;;8.34;51.71;96117.75;4991204;28;20364;-69
2021/11/09 00:10:59;;;;;;;19.73;11.98;;;;;;;8.56;51.24;96130.78;4990889;28;20031;-69
2021/11/09 00:13:24;;;;;;;19.63;11.00;;;;;;;8.65;51.20;96125.72;4990270;28;20100;-69
2021/11/09 00:15:52;;;;;;;14.70;10.65;;;;;;;8.76;51.28;96122.81;4986148;28;20117;-69
2021/11/09 00:18:17;;;;;;;18.67;11.75;;;;;;;8.92;50.73;96125.44;4990683;28;20025;-68
2021/11/09 00:20:43;;;;;;;23.05;11.02;;;;;;;9.00;50.70;96120.34;4990848;28;20030;-69
2021/11/09 00:23:09;;;;;;;25.85;12.93;;;;;;;9.12;50.64;96120.06;4990605;28;20476;-69
2021/11/09 00:25:37;;;;;;;18.90;10.45;;;;;;;9.22;50.09;96122.69;4990867;28;20018;-69
2021/11/09 00:28:03;;;;;;;16.70;11.68;;;;;;;9.42;50.11;96135.09;4990320;28;20033;-69
2021/11/09 00:30:30;;;;;;;20.02;10.35;;;;;;;9.50;49.60;96133.72;4985063;28;20030;-69
2021/11/09 00:32:55;;;;;;;17.70;11.32;;;;;;;9.53;49.70;96127.88;4990412;28;20022;-69
2021/11/09 00:35:26;;;;;;;18.52;10.88;;;;;;;9.61;49.09;96130.75;4990621;28;20101;-68
2021/11/09 00:37:52;;;;;;;18.95;11.25;;;;;;;9.69;49.03;96142.69;4990694;28;20169;-69
2021/11/09 00:40:20;;;;;;;20.20;11.18;;;;;;;9.76;48.96;96143.16;4990130;28;20571;-69
2021/11/09 00:42:45;;;;;;;21.50;11.65;;;;;;;9.71;49.05;96145.06;4989731;28;20038;-69
2021/11/09 00:45:13;;;;;;;17.98;10.77;;;;;;;9.76;48.89;96153.00;4985505;28;20030;-69
2021/11/09 00:47:38;;;;;;;21.80;11.52;;;;;;;9.48;48.55;96143.84;4990378;28;20491;-71
2021/11/09 00:50:07;;;;;;;15.93;11.13;;;;;;;9.64;49.28;96148.81;4989916;28;20022;-69
2021/11/09 00:52:33;;;;;;;16.92;10.75;;;;;;;9.72;49.42;96152.75;4990033;28;20030;-69
2021/11/09 00:54:59;;;;;;;17.80;11.00;;;;;;;9.85;49.21;96154.81;4990167;28;20026;-69
2021/11/09 00:57:25;;;;;;;16.65;11.15;;;;;;;9.92;49.52;96151.84;4989793;28;20541;-69
2021/11/09 00:59:50;;;;;;;21.88;11.05;;;;;;;9.99;48.65;96151.56;4978773;28;20043;-69
2021/11/09 01:02:15;;;;;;;21.08;11.35;;;;;;;9.94;48.51;96139.09;4988296;28;20038;-70
2021/11/09 01:04:41;;;;;;;18.95;11.57;;;;;;;10.06;48.88;96139.53;4989763;28;20634;-67
2021/11/09 01:07:06;;;;;;;19.52;12.23;;;;;;;10.13;49.31;96134.72;4990390;28;20034;-70
2021/11/09 01:09:32;;;;;;;22.38;11.48;;;;;;;10.20;48.84;96126.44;4987511;28;20044;-69
2021/11/09 01:11:57;;;;;;;18.95;11.90;;;;;;;10.26;49.23;96140.50;4990057;28;20113;-67
2021/11/09 01:14:24;;;;;;;27.63;13.30;;;;;;;10.26;49.25;96149.28;4984674;28;20031;-69
2021/11/09 01:16:51;;;;;;;23.08;13.88;;;;;;;10.32;49.29;96150.03;4985424;28;20031;-69
2021/11/09 01:19:17;;;;;;;29.50;13.38;;;;;;;10.37;49.49;96134.84;4987613;28;20034;-67
2021/11/09 01:21:43;;;;;;;34.85;13.75;;;;;;;10.48;49.19;96145.41;4990020;28;20026;-69
2021/11/09 01:24:10;;;;;;;25.08;13.02;;;;;;;10.47;49.37;96127.84;4989732;28;20026;-69
2021/11/09 01:26:36;;;;;;;29.23;14.10;;;;;;;10.59;49.19;96141.56;4989951;28;20468;-70
2021/11/09 01:29:05;;;;;;;31.40;14.05;;;;;;;10.61;48.42;96139.44;4984669;28;20041;-69
2021/11/09 01:31:30;;;;;;;18.25;12.40;;;;;;;10.65;49.25;96127.19;4984964;28;20084;-69
2021/11/09 01:33:56;;;;;;;18.40;13.05;;;;;;;10.67;49.54;96117.84;4989768;28;20034;-70
2021/11/09 01:36:22;;;;;;;22.40;12.00;;;;;;;10.76;48.87;96111.91;4988616;28;20455;-69
2021/11/09 01:38:48;;;;;;;27.50;13.63;;;;;;;10.79;49.04;96119.31;4989968;28;20488;-69
2021/11/09 01:41:14;;;;;;;21.02;11.20;;;;;;;10.86;48.63;96120.59;4989277;28;20128;-69
2021/11/09 01:43:41;;;;;;;24.15;11.68;;;;;;;10.84;48.78;96114.72;4987702;28;20034;-69
2021/11/09 01:46:08;;;;;;;19.60;11.88;;;;;;;10.82;49.22;96116.09;4981943;28;20026;-69
2021/11/09 01:48:35;;;;;;;22.50;11.60;;;;;;;10.75;48.69;96115.63;4989935;28;20081;-74
2021/11/09 01:51:05;;;;;;;24.58;13.38;;;;;;;10.72;48.60;96127.63;4989474;28;20036;-69
2021/11/09 01:53:32;;;;;;;16.35;10.82;;;;;;;10.75;48.59;96129.75;4989611;28;20058;-70
2021/11/09 01:56:01;;;;;;;24.92;11.02;;;;;;;10.70;48.95;96118.34;4990176;28;20034;-70
2021/11/09 01:58:27;;;;;;;20.35;12.02;;;;;;;10.85;48.60;96137.63;4989479;28;20428;-69
2021/11/09 02:01:02;;;;;;;20.27;11.13;;;;;;;10.87;48.55;96140.81;4989040;28;20110;-69
2021/11/09 02:03:28;;;;;;;31.27;14.00;;;;;;;10.88;48.64;96125.63;4989238;28;20022;-71
2021/11/09 02:05:54;;;;;;;18.40;12.00;;;;;;;10.90;48.56;96121.63;4989753;28;20570;-69
2021/11/09 02:08:21;;;;;;;22.98;11.88;;;;;;;10.93;48.57;96114.94;4989795;28;20085;-69
2021/11/09 02:10:48;;;;;;;21.85;11.18;;;;;;;10.98;48.87;96114.88;4987923;28;20022;-69
2021/11/09 02:13:15;;;;;;;20.60;12.30;;;;;;;10.90;48.46;96108.31;4988787;28;20026;-69
2021/11/09 02:15:41;;;;;;;22.60;11.23;;;;;;;10.83;48.68;96109.69;4989471;28;20023;-69
2021/11/09 02:18:09;;;;;;;23.10;11.15;;;;;;;10.82;48.35;96110.78;4989431;28;20037;-69
2021/11/09 02:20:35;;;;;;;18.15;11.48;;;;;;;10.66;49.05;96107.47;4989392;28;20056;-69
2021/11/09 02:23:01;;;;;;;21.30;11.90;;;;;;;10.59;48.86;96109.66;4992741;28;20080;-69
2021/11/09 02:25:29;;;;;;;20.63;11.32;;;;;;;10.23;49.30;96083.31;4993121;28;20109;-69
2021/11/09 02:27:56;;;;;;;24.13;12.07;;;;;;;10.25;49.56;96107.81;4992690;28;20030;-69
2021/11/09 02:30:23;;;;;;;26.65;13.18;;;;;;;10.10;49.73;96111.34;4987473;28;20027;-69
2021/11/09 02:32:49;;;;;;;22.40;13.25;;;;;;;10.02;49.19;96125.22;4987739;28;20049;-69
2021/11/09 02:35:15;;;;;;;23.50;13.15;;;;;;;9.80;50.16;96119.50;4992878;28;20088;-69
2021/11/09 02:37:41;;;;;;;27.27;12.90;;;;;;;9.64;50.31;96114.28;5008277;28;20547;-69
2021/11/09 02:40:09;;;;;;;28.45;13.13;;;;;;;9.57;50.45;96120.94;4993017;28;20061;-69
2021/11/09 02:42:39;;;;;;;25.88;13.73;;;;;;;9.44;50.64;96137.47;4993051;28;20026;-69
2021/11/09 02:45:21;;;;;;;37.40;14.38;;;;;;;9.34;50.82;96144.41;4987753;28;20034;-69
2021/11/09 02:48:02;;;;;;;25.85;13.38;;;;;;;9.25;51.43;96135.41;4988235;28;20421;-69
2021/11/09 02:50:33;;;;;;;25.90;15.15;;;;;;;9.15;51.60;96140.75;4992182;28;20066;-69
2021/11/09 02:53:08;;;;;;;22.52;14.25;;;;;;;9.00;51.90;96130.97;4992328;28;20024;-69
2021/11/09 02:55:39;;;;;;;22.67;13.85;;;;;;;8.92;51.91;96138.69;4991164;28;20027;-69
2021/11/09 03:04:20;;;;;;;27.10;14.13;;;;;;;8.65;52.84;96142.44;4943066;29;20105;-69
2021/11/09 03:09:18;;;;;;;25.70;13.85;;;;;;;8.52;53.01;96140.31;4992136;28;20472;-69
2021/11/09 03:11:52;;;;;;;29.92;14.25;;;;;;;8.41;52.60;96138.75;4992150;28;20026;-69
2021/11/09 03:14:19;;;;;;;37.03;14.30;;;;;;;8.28;52.56;96135.50;4986919;28;20641;-68
2021/11/09 03:16:45;;;;;;;32.05;14.85;;;;;;;8.06;53.02;96133.13;4987435;28;20480;-69
2021/11/09 03:47:11;;;;;;;27.23;14.90;;;;;;;7.50;53.84;96150.72;4947364;29;20106;-69
2021/11/09 03:49:38;;;;;;;34.08;14.13;;;;;;;7.47;53.16;96152.06;4979850;28;20054;-69
2021/11/09 03:52:17;;;;;;;24.33;13.52;;;;;;;7.42;53.34;96148.56;4991391;28;20395;-69
2021/11/09 03:54:43;;;;;;;22.20;13.63;;;;;;;7.38;53.75;96147.50;4991291;28;20121;-68
2021/11/09 03:57:30;;;;;;;30.77;15.20;;;;;;;7.34;53.19;96155.16;4991390;28;20022;-69
2021/11/09 04:02:49;;;;;;;34.15;15.85;;;;;;;7.32;53.89;96157.28;4987886;28;20038;-70
2021/11/09 04:05:16;;;;;;;40.30;17.13;;;;;;;7.30;53.94;96146.94;4991524;28;20403;-68
2021/11/09 04:07:56;;;;;;;27.83;14.95;;;;;;;7.28;54.80;96153.53;4991370;28;20038;-69
2021/11/09 04:10:34;;;;;;;32.67;14.95;;;;;;;7.34;53.92;96157.81;4989674;28;20031;-69
2021/11/09 04:13:06;;;;;;;32.58;16.67;;;;;;;7.26;54.12;96153.78;4990715;28;20053;-69
2021/11/09 04:15:48;;;;;;;41.28;16.98;;;;;;;7.30;54.80;96162.81;4986021;28;20023;-68
2021/11/09 04:21:06;;;;;;;34.13;15.82;;;;;;;7.24;53.89;96169.13;4990575;28;20197;-68
2021/11/09 05:03:03;;;;;;;40.38;18.10;;;;;;;7.13;55.46;96177.28;4989652;28;20495;-70
2021/11/09 05:10:46;;;;;;;42.20;18.13;;;;;;;7.10;56.50;96167.19;4990297;28;20490;-69
2021/11/09 05:13:11;;;;;;;51.08;20.02;;;;;;;7.18;56.35;96180.75;4990092;28;20485;-70
2021/11/09 05:15:37;;;;;;;38.53;18.65;;;;;;;7.16;56.12;96184.69;4984988;28;20096;-75
2021/11/09 05:18:03;;;;;;;67.20;23.40;;;;;;;7.13;56.17;96167.50;5000364;28;20061;-69
2021/11/09 05:20:30;;;;;;;54.50;21.05;;;;;;;7.18;56.24;96186.03;4989387;28;20034;-69
2021/11/09 05:22:56;;;;;;;51.67;19.50;;;;;;;7.17;55.58;96181.81;4989952;28;20068;-67
2021/11/09 05:25:21;;;;;;;43.13;18.55;;;;;;;7.18;55.78;96188.69;4990166;28;20052;-67
2021/11/09 05:27:47;;;;;;;49.75;18.92;;;;;;;7.13;56.17;96183.38;5004917;28;20473;-67
2021/11/09 05:30:16;;;;;;;37.63;19.10;;;;;;;7.19;55.43;96192.13;4989087;28;20041;-66
2021/11/09 05:32:42;;;;;;;45.50;21.20;;;;;;;7.17;55.89;96195.03;4984827;28;20464;-68
2021/11/09 05:35:09;;;;;;;43.67;20.30;;;;;;;6.88;55.94;96183.22;5004312;28;20527;-73
2021/11/09 05:37:40;;;;;;;41.53;19.88;;;;;;;6.99;55.71;96190.16;4990151;28;20030;-71
2021/11/09 05:40:07;;;;;;;45.90;18.70;;;;;;;7.06;55.80;96190.72;4990006;28;20406;-66
2021/11/09 05:42:32;;;;;;;42.92;19.23;;;;;;;7.08;55.59;96180.69;4990658;28;20030;-64
2021/11/09 05:44:58;;;;;;;42.00;19.67;;;;;;;7.00;55.58;96181.94;4985254;28;20114;-73
2021/11/09 05:47:24;;;;;;;48.05;18.77;;;;;;;7.05;55.92;96181.19;4981206;28;20030;-69
2021/11/09 05:49:49;;;;;;;43.33;18.92;;;;;;;7.04;55.61;96185.69;4989841;28;20030;-68
2021/11/09 05:52:15;;;;;;;47.80;19.73;;;;;;;6.91;55.37;96170.28;4989552;28;20034;-69
2021/11/09 05:54:40;;;;;;;55.25;22.77;;;;;;;6.84;55.50;96163.59;4989665;28;20066;-69
2021/11/09 05:57:06;;;;;;;41.38;20.13;;;;;;;6.95;55.87;96179.28;4992253;28;20027;-69
2021/11/09 05:59:31;;;;;;;50.83;23.05;;;;;;;6.80;55.16;96165.94;4992317;28;20027;-68
2021/11/09 06:01:57;;;;;;;55.40;24.52;;;;;;;6.86;55.33;96180.00;4985205;28;20026;-69
2021/11/09 06:04:24;;;;;;;42.00;20.77;;;;;;;6.82;55.53;96178.94;4984049;28;20483;-69
2021/11/09 06:06:49;;;;;;;67.38;26.55;;;;;;;6.80;54.84;96179.19;4993349;28;20029;-70
2021/11/09 06:09:15;;;;;;;65.10;26.52;;;;;;;6.72;55.42;96174.38;4993042;28;20031;-69
2021/11/09 06:11:41;;;;;;;74.55;27.70;;;;;;;6.70;55.24;96171.16;4993142;28;20447;-72
2021/11/09 06:14:07;;;;;;;54.33;22.65;;;;;;;6.69;55.42;96178.31;4992737;28;20046;-71
2021/11/09 06:16:33;;;;;;;56.55;23.58;;;;;;;6.67;55.43;96179.63;4988185;28;20532;-72
2021/11/09 06:18:59;;;;;;;60.72;26.63;;;;;;;6.73;55.50;96191.81;4993075;28;20030;-73
2021/11/09 06:21:24;;;;;;;50.75;24.08;;;;;;;6.81;55.64;96196.66;4991973;28;20396;-71
2021/11/09 06:23:50;;;;;;;49.50;24.30;;;;;;;6.93;55.34;96201.75;4992944;28;20042;-74
2021/11/09 06:26:16;;;;;;;51.42;24.58;;;;;;;7.06;55.15;96198.66;4993235;28;20074;-72
2021/11/09 06:28:43;;;;;;;46.22;24.33;;;;;;;7.23;55.64;96191.38;4993516;28;20029;-76
2021/11/09 06:31:08;;;;;;;51.25;25.58;;;;;;;7.31;54.99;96182.13;4980335;28;20449;-76
2021/11/09 06:33:34;;;;;;;48.65;24.70;;;;;;;7.68;54.59;96203.22;4992847;28;20033;-69
2021/11/09 06:36:00;;;;;;;49.13;24.73;;;;;;;7.79;54.03;96194.25;4993214;28;20014;-75
2021/11/09 06:38:25;;;;;;;48.65;23.77;;;;;;;7.99;54.09;96196.19;4993525;28;20101;-78
2021/11/09 06:40:51;;;;;;;50.08;22.98;;;;;;;8.20;54.00;96212.13;4992755;28;20113;-75
2021/11/09 06:43:17;;;;;;;60.75;26.83;;;;;;;8.29;53.42;96214.00;4992226;28;20023;-73
2021/11/09 06:45:43;;;;;;;38.20;22.17;;;;;;;8.43;53.07;96216.94;4991978;28;20034;-72
2021/11/09 06:48:09;;;;;;;34.42;21.80;;;;;;;8.68;52.74;96220.69;4992715;28;20030;-77
2021/11/09 06:50:35;;;;;;;48.22;21.90;;;;;;;8.70;52.39;96218.53;4993317;28;20161;-76
2021/11/09 06:53:01;;;;;;;32.00;20.30;;;;;;;8.77;52.64;96225.19;4998837;28;20073;-82
2021/11/09 06:55:27;;;;;;;38.35;19.48;;;;;;;8.87;52.38;96235.00;4993843;28;20037;-73
2021/11/09 06:57:53;;;;;;;69.25;19.42;;;;;;;8.88;51.95;96230.50;4993325;28;20104;-76
2021/11/09 07:00:22;;;;;;;69.53;23.10;;;;;;;9.01;52.06;96227.31;4993132;28;20058;-76
2021/11/09 07:02:48;;;;;;;50.67;19.95;;;;;;;9.01;51.14;96233.44;4993949;28;20034;-78
2021/11/09 07:05:14;;;;;;;47.70;19.85;;;;;;;9.05;51.90;96234.47;4994485;28;20030;-77
2021/11/09 07:07:40;;;;;;;33.97;19.70;;;;;;;9.24;51.50;96237.38;4996907;28;20034;-73
2021/11/09 07:10:07;;;;;;;39.35;19.13;;;;;;;9.43;51.50;96237.59;4992829;28;20492;-73
2021/11/09 07:12:33;;;;;;;47.67;20.30;;;;;;;9.51;51.21;96236.25;5008205;28;20038;-74
2021/11/09 07:14:58;;;;;;;51.50;19.17;;;;;;;9.45;50.70;96230.16;4991981;28;20022;-74
2021/11/09 07:17:24;;;;;;;59.90;24.25;;;;;;;9.62;50.85;96248.41;4985507;28;20026;-77
2021/11/09 07:19:52;;;;;;;47.30;20.92;;;;;;;9.43;50.60;96247.44;4986999;28;20085;-75
2021/11/09 07:22:20;;;;;;;53.97;22.65;;;;;;;9.44;50.49;96231.22;4993244;28;20072;-84
2021/11/09 07:24:46;;;;;;;60.83;19.42;;;;;;;8.84;51.17;96249.59;4993017;28;20026;-74
2021/11/09 07:27:12;;;;;;;28.38;16.25;;;;;;;9.44;51.10;96243.72;4993234;28;20082;-77
2021/11/09 07:29:39;;;;;;;31.05;18.40;;;;;;;9.71;51.08;96246.00;4991922;28;20483;-74
2021/11/09 07:32:06;;;;;;;33.95;18.40;;;;;;;9.71;50.83;96244.16;4991847;28;20587;-74
2021/11/09 07:34:31;;;;;;;27.67;17.13;;;;;;;9.32;51.12;96231.53;4991386;28;20033;-75
2021/11/09 07:36:58;;;;;;;40.78;20.95;;;;;;;9.70;50.69;96245.22;4992089;28;20048;-70
2021/11/09 07:39:25;;;;;;;29.83;17.55;;;;;;;9.98;51.32;96237.66;4991389;28;20365;-73
2021/11/09 07:41:51;;;;;;;28.92;17.13;;;;;;;10.14;50.36;96228.56;4991705;28;20084;-73
2021/11/09 07:44:17;;;;;;;38.70;21.45;;;;;;;10.13;49.91;96245.56;4991278;28;20361;-73
2021/11/09 07:46:42;;;;;;;36.08;20.67;;;;;;;10.15;49.43;96240.78;5001203;28;20072;-73
2021/11/09 07:49:07;;;;;;;27.40;18.70;;;;;;;9.97;49.91;96231.56;4988293;28;20161;-73
2021/11/09 07:51:35;;;;;;;26.88;19.30;;;;;;;9.69;50.52;96229.56;4991695;28;20498;-70
2021/11/09 07:54:01;;;;;;;23.50;16.85;;;;;;;9.58;51.13;96242.09;4991178;28;20026;-70
2021/11/09 07:56:37;;;;;;;20.88;16.33;;;;;;;9.45;51.49;96235.47;4991480;28;20030;-70
2021/11/09 08:01:38;;;;;;;20.15;14.95;;;;;;;9.51;51.13;96233.59;4986120;28;20041;-75
2021/11/09 08:11:45;;;;;;;20.67;14.45;;;;;;;9.69;51.83;96237.53;4971973;28;20045;-69
2021/11/09 08:14:11;;;;;;;17.83;14.30;;;;;;;9.80;51.62;96242.53;4971472;28;20031;-69
2021/11/09 08:16:36;;;;;;;22.38;15.98;;;;;;;9.51;51.91;96236.25;4994036;28;20388;-70
2021/11/09 08:19:03;;;;;;;17.88;15.05;;;;;;;9.19;52.68;96241.88;4990021;28;20026;-70
2021/11/09 08:21:28;;;;;;;18.55;13.15;;;;;;;9.38;52.26;96249.03;4990655;28;20038;-69
2021/11/09 08:23:54;;;;;;;19.90;14.88;;;;;;;9.02;52.86;96234.22;4990702;28;20392;-70
2021/11/09 08:26:25;;;;;;;15.13;12.70;;;;;;;9.07;52.91;96240.31;4990934;28;20075;-70
2021/11/09 08:28:53;;;;;;;22.90;14.30;;;;;;;9.02;53.49;96240.31;5005944;28;20436;-70
2021/11/09 08:31:21;;;;;;;22.58;13.55;;;;;;;9.11;52.90;96224.66;4990022;28;20023;-69
2021/11/09 08:33:46;;;;;;;15.63;14.02;;;;;;;9.17;52.67;96212.97;4985590;28;20022;-70
2021/11/09 08:36:15;;;;;;;19.52;12.60;;;;;;;9.43;52.13;96231.50;4986211;28;20114;-70
2021/11/09 08:38:42;;;;;;;22.38;14.27;;;;;;;9.01;53.27;96238.72;4971002;28;20036;-70
2021/11/09 08:41:09;;;;;;;18.65;12.75;;;;;;;9.19;52.78;96236.56;4970751;28;20381;-70
2021/11/09 08:43:37;;;;;;;15.80;11.77;;;;;;;9.13;52.57;96209.25;4985765;28;20660;-70
2021/11/09 08:46:27;;;;;;;16.38;11.65;;;;;;;9.27;53.01;96226.22;4979099;28;20038;-70
2021/11/09 08:48:53;;;;;;;22.33;13.32;;;;;;;9.45;52.84;96232.00;4989338;28;20046;-70
2021/11/09 08:51:21;;;;;;;16.35;13.27;;;;;;;9.44;52.45;96235.75;4988809;28;20030;-70
2021/11/09 09:04:11;;;;;;;19.08;10.10;;;;;;;9.64;52.14;96241.78;4985193;28;20026;-70
2021/11/09 09:04:19;;;;;;;12.32;10.27;;;;;;;9.49;51.64;96227.75;4983469;28;20403;-72
2021/11/09 09:06:50;;;;;;;10.93;9.25;;;;;;;9.61;51.85;96254.81;4990550;28;20065;-70
2021/11/09 09:09:16;;;;;;;13.20;10.07;;;;;;;9.74;51.36;96251.59;4990622;28;20034;-70
2021/11/09 09:11:43;;;;;;;14.20;10.30;;;;;;;9.71;51.42;96256.66;4990959;28;20042;-70
2021/11/09 09:14:09;;;;;;;12.52;11.23;;;;;;;9.26;52.03;96237.88;4990325;28;20515;-69
2021/11/09 09:16:35;;;;;;;12.13;10.88;;;;;;;9.65;52.28;96258.53;4985204;28;20030;-71
2021/11/09 09:19:03;;;;;;;20.50;12.00;;;;;;;9.83;51.97;96265.91;4985139;28;20026;-70
2021/11/09 09:21:35;;;;;;;13.38;11.77;;;;;;;9.58;52.14;96250.84;4990060;28;20030;-70
2021/11/09 09:24:18;;;;;;;13.43;11.13;;;;;;;10.06;51.52;96256.50;4988679;28;20077;-70
2021/11/09 09:56:43;;;;;;;11.40;9.48;;;;;;;10.15;50.92;96259.41;4993875;28;20106;-72
2021/11/09 09:59:06;;;;;;;11.18;10.07;;;;;;;9.94;51.87;96256.03;4992962;28;20053;-72
2021/11/09 10:01:31;;;;;;;12.45;9.52;;;;;;;10.02;52.01;96254.66;4984597;28;20496;-72
2021/11/09 10:03:57;;;;;;;12.07;8.60;;;;;;;9.77;52.81;96248.38;4984175;28;20030;-72
2021/11/09 10:06:41;;;;;;;10.38;8.30;;;;;;;9.86;52.05;96244.09;4993486;28;20033;-70
2021/11/09 10:09:07;;;;;;;14.50;9.40;;;;;;;9.99;51.27;96252.56;4992967;28;20148;-69
2021/11/09 10:11:39;;;;;;;10.07;8.30;;;;;;;10.21;51.16;96249.53;4993920;28;20672;-69
2021/11/09 10:14:06;;;;;;;16.33;8.80;;;;;;;9.73;52.42;96235.94;4993517;28;20053;-71
2021/11/09 10:16:34;;;;;;;15.02;8.73;;;;;;;10.58;50.54;96244.53;4984703;28;20039;-69
2021/11/09 10:19:01;;;;;;;9.50;8.20;;;;;;;10.87;49.78;96238.50;4984338;28;20057;-72
2021/11/09 10:21:38;;;;;;;11.10;8.07;;;;;;;10.98;49.37;96204.59;4988823;28;20030;-72
2021/11/09 10:24:23;;;;;;;14.77;8.00;;;;;;;11.27;48.83;96229.34;4973692;28;20030;-69
2021/11/09 10:26:50;;;;;;;14.95;7.93;;;;;;;10.75;50.37;96228.22;4972563;28;20073;-72
2021/11/09 10:29:15;;;;;;;11.27;7.63;;;;;;;10.70;49.15;96212.28;4972046;28;20440;-69
2021/11/09 10:31:41;;;;;;;9.35;7.22;;;;;;;10.70;49.44;96222.09;4979243;28;20038;-72
2021/11/09 10:34:25;;;;;;;12.50;7.40;;;;;;;10.27;49.38;96214.69;4992718;28;20524;-72
2021/11/09 10:37:15;;;;;;;11.20;6.80;;;;;;;10.77;48.79;96230.59;4993027;28;20231;-69
2021/11/09 10:39:44;;;;;;;10.65;6.50;;;;;;;10.03;49.97;96206.56;4992815;28;20026;-71
2021/11/09 10:42:15;;;;;;;10.40;6.20;;;;;;;10.07;50.13;96223.53;4992352;28;20552;-72
2021/11/09 10:44:42;;;;;;;13.88;6.00;;;;;;;10.42;48.82;96213.78;4992661;28;20033;-71
2021/11/09 10:47:23;;;;;;;8.65;6.25;;;;;;;10.38;49.35;96223.41;5002451;28;20022;-71
2021/11/09 10:49:58;;;;;;;13.63;5.68;;;;;;;10.98;48.30;96223.22;4987507;28;20050;-70
2021/11/09 10:52:34;;;;;;;18.38;6.13;;;;;;;10.72;48.12;96222.66;4992282;28;20036;-70
2021/11/09 10:55:16;;;;;;;8.30;5.20;;;;;;;10.93;47.74;96218.75;5007223;28;20423;-72
2021/11/09 11:03:33;;;;;;;6.50;4.25;;;;;;;11.19;46.76;96214.78;4987112;28;20037;-71
2021/11/09 11:06:23;;;;;;;8.45;4.50;;;;;;;11.48;45.75;96207.84;4992412;28;20034;-71
2021/11/09 11:09:11;;;;;;;7.45;4.57;;;;;;;10.98;46.68;96210.72;4990868;28;20027;-70
2021/11/09 11:11:46;;;;;;;8.48;4.60;;;;;;;11.08;45.62;96217.81;4988557;28;20496;-71
2021/11/09 11:14:15;;;;;;;8.02;4.30;;;;;;;11.27;45.77;96207.25;4991730;28;20125;-71
2021/11/09 11:17:00;;;;;;;8.25;4.30;;;;;;;11.09;45.59;96196.22;4990047;28;20030;-71
2021/11/09 11:19:45;;;;;;;5.75;4.57;;;;;;;11.68;45.12;96196.97;4989354;28;20035;-71
2021/11/09 11:22:16;;;;;;;6.97;3.90;;;;;;;11.50;43.96;96195.03;4992059;28;20664;-70
2021/11/09 11:24:43;;;;;;;6.88;3.80;;;;;;;11.19;44.77;96193.47;4992072;28;20026;-72
2021/11/09 11:27:11;;;;;;;6.32;3.47;;;;;;;11.41;44.10;96200.16;4991908;28;20053;-72
2021/11/09 11:29:38;;;;;;;6.10;3.90;;;;;;;11.26;44.37;96198.47;4991160;28;20018;-71
2021/11/09 11:32:12;;;;;;;5.80;3.65;;;;;;;11.53;44.29;96195.25;4987227;28;20066;-71
2021/11/09 11:34:38;;;;;;;7.20;3.75;;;;;;;11.82;43.42;96187.19;4989473;28;20015;-69
2021/11/09 11:37:04;;;;;;;3.95;3.40;;;;;;;12.03;43.34;96202.94;4992062;28;20036;-70
2021/11/09 11:39:32;;;;;;;6.82;4.30;;;;;;;11.88;43.78;96187.94;4991944;28;20388;-70
2021/11/09 11:42:01;;;;;;;6.38;3.38;;;;;;;12.35;42.55;96195.03;4992144;28;20081;-70
2021/11/09 11:44:31;;;;;;;4.60;3.60;;;;;;;12.27;43.30;96193.00;4991441;28;20022;-70
2021/11/09 11:46:59;;;;;;;10.63;4.65;;;;;;;12.09;42.17;96193.81;4987711;28;20457;-70
2021/11/09 11:49:47;;;;;;;5.28;3.78;;;;;;;11.97;42.78;96184.34;4987484;28;20030;-71
2021/11/09 11:52:12;;;;;;;4.40;3.65;;;;;;;12.54;42.38;96189.69;4991226;28;20034;-72
2021/11/09 11:55:04;;;;;;;4.50;3.10;;;;;;;12.78;41.50;96184.22;4990634;28;20030;-71
2021/11/09 11:57:31;;;;;;;5.65;4.05;;;;;;;12.59;41.62;96186.97;4991280;28;20049;-71
2021/11/09 11:59:57;;;;;;;6.70;3.97;;;;;;;12.45;42.09;96173.53;4990721;28;20026;-72
2021/11/09 12:02:36;;;;;;;8.20;3.67;;;;;;;12.61;41.87;96170.63;4985656;28;20110;-73
2021/11/09 12:05:04;;;;;;;7.72;3.88;;;;;;;12.11;42.28;96168.44;4986840;28;20054;-71
2021/11/09 12:07:56;;;;;;;6.25;3.92;;;;;;;12.23;42.88;96181.31;4971708;28;20019;-71
2021/11/09 12:10:22;;;;;;;6.40;3.97;;;;;;;12.55;41.99;96177.94;4972111;28;20514;-73
2021/11/09 12:13:03;;;;;;;5.43;3.60;;;;;;;12.13;41.81;96179.63;4986335;28;20297;-71
2021/11/09 12:16:03;;;;;;;8.65;3.97;;;;;;;12.45;42.04;96186.09;4971717;28;20033;-71
2021/11/09 12:18:31;;;;;;;6.53;4.10;;;;;;;11.42;43.35;96194.56;4985856;28;20021;-71
2021/11/09 12:21:05;;;;;;;7.05;3.95;;;;;;;11.78;43.06;96198.72;4990522;28;20109;-71
2021/11/09 12:23:32;;;;;;;9.23;4.57;;;;;;;12.12;42.62;96187.88;4990254;28;20026;-71
2021/11/09 12:25:58;;;;;;;7.38;5.03;;;;;;;12.03;43.03;96200.28;4990645;28;20033;-71
2021/11/09 12:28:35;;;;;;;5.70;4.30;;;;;;;11.92;42.53;96192.41;4990661;28;20396;-71
2021/11/09 12:31:10;;;;;;;6.68;4.70;;;;;;;11.92;42.31;96197.72;4988555;28;20038;-71
2021/11/09 12:33:48;;;;;;;5.15;4.43;;;;;;;11.77;42.47;96181.09;4982920;28;20502;-71
2021/11/09 12:36:23;;;;;;;4.85;4.32;;;;;;;11.48;43.20;96174.00;4990536;28;20062;-71
2021/11/09 12:38:53;;;;;;;6.35;4.43;;;;;;;11.60;42.67;96162.94;4990385;28;20546;-72
2021/11/09 12:41:22;;;;;;;8.93;5.03;;;;;;;10.83;44.91;96160.28;4990310;28;20109;-72
2021/11/09 12:43:47;;;;;;;6.57;4.90;;;;;;;11.35;43.68;96151.47;4990098;28;20029;-71
2021/11/09 12:46:29;;;;;;;8.32;5.38;;;;;;;11.58;43.45;96143.78;4989748;28;20530;-70
2021/11/09 12:48:57;;;;;;;7.57;4.38;;;;;;;10.96;43.73;96146.31;4982014;28;20023;-70
2021/11/09 12:51:35;;;;;;;5.57;4.70;;;;;;;11.17;43.42;96160.22;4989432;28;20030;-71
2021/11/09 12:54:04;;;;;;;4.70;4.18;;;;;;;11.56;43.21;96154.69;4990135;28;20379;-72
2021/11/09 12:56:58;;;;;;;10.73;5.00;;;;;;;11.28;43.97;96153.69;4990427;28;20018;-70
2021/11/09 12:59:29;;;;;;;6.22;4.63;;;;;;;11.63;43.43;96135.72;4990284;28;20030;-72
2021/11/09 13:09:46;;;;;;;9.18;5.53;;;;;;;11.38;43.19;96124.28;4990176;28;20041;-72
2021/11/09 13:12:17;;;;;;;6.70;5.18;;;;;;;11.54;43.50;96129.44;4990274;28;20498;-72
2021/11/09 13:14:44;;;;;;;8.27;5.60;;;;;;;11.62;43.28;96118.94;4990043;28;20036;-72
2021/11/09 13:17:33;;;;;;;11.15;5.70;;;;;;;11.68;42.94;96128.44;4984911;28;20057;-71
2021/11/09 13:20:00;;;;;;;10.10;5.60;;;;;;;11.63;44.02;96133.06;4983612;28;20096;-71
2021/11/09 13:22:29;;;;;;;6.22;5.25;;;;;;;11.51;43.56;96138.00;4985450;28;20097;-71
2021/11/09 13:25:05;;;;;;;10.57;5.93;;;;;;;11.69;43.94;96138.03;4969275;28;20081;-71
2021/11/09 13:27:44;;;;;;;9.27;5.95;;;;;;;12.11;43.00;96148.97;4971031;28;20027;-72
2021/11/09 13:30:17;;;;;;;10.43;6.65;;;;;;;11.92;43.87;96136.41;4970430;28;20023;-71
2021/11/09 13:32:46;;;;;;;8.32;6.53;;;;;;;11.92;44.95;96139.06;4976050;28;20027;-72
2021/11/09 13:35:28;;;;;;;9.80;6.32;;;;;;;11.82;44.84;96143.75;4984720;28;20034;-71
2021/11/09 13:38:06;;;;;;;;;;;;;;;12.08;44.39;96146.88;4991181;28;20034;-70
2021/11/09 13:40:32;;;;;;;11.38;6.80;;;;;;;11.97;44.27;96140.88;4990030;28;19917;-73
2021/11/09 13:43:04;;;;;;;11.15;6.72;;;;;;;11.63;45.30;96141.84;4990379;28;20093;-72
2021/11/09 13:45:30;;;;;;;;;;;;;;;11.21;46.87;96150.59;4991020;28;20026;-71
2021/11/09 13:47:56;;;;;;;10.60;7.60;;;;;;;11.08;47.13;96133.41;4984631;28;20334;-70
2021/11/09 13:50:21;;;;;;;11.60;7.90;;;;;;;11.36;47.10;96145.09;4984477;28;20041;-70
2021/11/09 13:52:49;;;;;;;9.77;7.95;;;;;;;11.32;47.13;96156.59;5004444;28;20061;-70
2021/11/09 13:55:17;;;;;;;10.63;7.43;;;;;;;11.32;47.23;96151.28;4989763;28;20022;-71
2021/11/09 13:57:44;;;;;;;10.57;7.70;;;;;;;11.75;45.88;96161.94;5004725;28;20023;-72
2021/11/09 14:00:18;;;;;;;10.45;8.13;;;;;;;11.39;47.03;96163.16;4989328;28;20035;-72
2021/11/09 14:02:53;;;;;;;9.57;7.35;;;;;;;11.06;47.16;96148.09;4984164;28;20064;-74
2021/11/09 14:05:50;;;;;;;9.82;8.38;;;;;;;11.39;46.78;96154.38;4985066;28;20031;-72